Terminal Aerodrome Forecast
Issued by NWS Burlington, VT

Home | Current Version | Previous Version | Text Only | Print | Product List | Glossary On
Versions: 1 2 3 4 5 6 7 8 9 10 11 12 13 14 15 16
586
FTUS41 KBTV 222336
TAFBTV
TAF
KBTV 222336Z 2300/2324 31006KT P6SM SCT200
     FM231300 17006KT P6SM BKN150
     FM231800 17010G20KT P6SM VCSH OVC045
     FM232100 18012G22KT P6SM VCSH OVC025=

USA.gov is the U.S. government's official web portal to all federal, state and local government web resources and services.